Time;durP1;ratioP1;P1;durP2;ratioP2;P2;SDS_P1;SDS_P2;PMS_P1;PMS_P2;Temp;Humidity;BMP_temperature;BMP_pressure;BME280_temperature;BME280_humidity;BME280_pressure;Samples;Min_cycle;Max_cycle;Signal;HPM_P1;HPM_P2
2022/05/04 00:01:00;;;;;;;13.93;4.00;;;8.30;99.90;;;;;;5052889;28;20087;-74
2022/05/04 00:03:26;;;;;;;21.05;2.95;;;8.20;99.90;;;;;;5035054;28;20053;-73
2022/05/04 00:05:52;;;;;;;19.58;2.70;;;8.20;99.90;;;;;;5052848;28;20041;-72
2022/05/04 00:08:18;;;;;;;14.30;2.78;;;8.20;99.90;;;;;;5051666;28;20094;-74
2022/05/04 00:10:44;;;;;;;15.27;2.70;;;8.10;99.90;;;;;;5035047;28;20036;-74
2022/05/04 00:13:11;;;;;;;13.82;2.83;;;8.20;99.90;;;;;;5034774;28;20098;-74
2022/05/04 00:15:37;;;;;;;;;;;8.30;99.90;;;;;;5052395;28;20053;-74
2022/05/04 00:18:03;;;;;;;13.25;2.83;;;8.20;99.90;;;;;;5084299;28;20276;-74
2022/05/04 00:20:29;;;;;;;11.05;2.30;;;8.20;99.90;;;;;;5052282;28;20080;-73
2022/05/04 00:22:55;;;;;;;10.05;2.55;;;8.20;99.90;;;;;;5035220;28;20444;-73
2022/05/04 00:25:21;;;;;;;11.98;2.28;;;8.20;99.90;;;;;;5051532;28;20118;-73
2022/05/04 00:27:48;;;;;;;13.60;2.70;;;8.20;99.90;;;;;;5052582;28;20428;-74
2022/05/04 00:30:14;;;;;;;12.40;2.17;;;8.20;99.90;;;;;;5051848;28;20044;-73
2022/05/04 00:32:41;;;;;;;12.75;2.05;;;8.20;99.90;;;;;;5054511;28;20501;-72
2022/05/04 00:35:08;;;;;;;13.30;3.10;;;8.10;99.90;;;;;;5056611;28;20102;-73
2022/05/04 00:37:33;;;;;;;14.30;2.37;;;8.20;99.90;;;;;;5057082;28;20037;-72
2022/05/04 00:39:59;;;;;;;16.83;2.17;;;8.10;99.90;;;;;;5055230;28;20045;-74
2022/05/04 00:42:25;;;;;;;10.73;2.35;;;8.20;99.90;;;;;;5055115;28;20064;-74
2022/05/04 00:44:51;;;;;;;7.10;2.20;;;8.10;99.90;;;;;;5057025;28;20051;-75
2022/05/04 00:47:19;;;;;;;15.05;2.08;;;8.20;99.90;;;;;;5056211;28;20044;-74
2022/05/04 00:49:48;;;;;;;16.83;2.47;;;8.20;99.90;;;;;;5038970;28;20096;-73
2022/05/04 00:52:14;;;;;;;13.48;2.20;;;8.10;99.90;;;;;;5057018;28;20041;-74
2022/05/04 00:54:43;;;;;;;13.48;2.67;;;8.10;99.90;;;;;;5056073;28;20064;-73
2022/05/04 00:57:11;;;;;;;10.15;2.47;;;8.10;99.90;;;;;;5055580;28;20049;-76
2022/05/04 00:59:38;;;;;;;9.73;2.38;;;8.00;99.90;;;;;;5056865;28;20099;-73
2022/05/04 01:02:04;;;;;;;12.18;2.10;;;8.10;99.90;;;;;;5055010;28;20135;-73
2022/05/04 01:04:31;;;;;;;14.23;2.75;;;8.10;99.90;;;;;;5055342;28;20056;-75
2022/05/04 01:06:57;;;;;;;16.98;2.28;;;8.10;99.90;;;;;;5056339;28;20049;-73
2022/05/04 01:09:23;;;;;;;12.77;2.25;;;8.10;99.90;;;;;;5056138;28;20045;-73
2022/05/04 01:11:48;;;;;;;16.13;2.50;;;8.10;99.90;;;;;;5056262;28;20048;-73
2022/05/04 01:14:16;;;;;;;13.85;2.50;;;8.10;99.90;;;;;;5054894;28;20470;-73
2022/05/04 01:16:45;;;;;;;8.05;2.50;;;8.10;99.90;;;;;;5054493;28;20136;-74
2022/05/04 01:19:12;;;;;;;9.90;2.92;;;8.10;99.90;;;;;;5055407;28;20061;-73
2022/05/04 01:21:38;;;;;;;14.65;3.30;;;8.10;99.90;;;;;;5056483;28;20052;-73
2022/05/04 01:24:05;;;;;;;21.13;3.63;;;8.00;99.90;;;;;;5038871;28;20048;-73
2022/05/04 01:26:31;;;;;;;23.20;4.00;;;8.00;99.90;;;;;;5056384;28;20068;-76
2022/05/04 01:28:56;;;;;;;20.45;2.65;;;8.10;99.90;;;;;;5058071;28;20126;-73
2022/05/04 01:31:23;;;;;;;12.57;2.35;;;8.10;99.90;;;;;;5057799;28;20060;-71
2022/05/04 01:33:49;;;;;;;11.40;2.55;;;8.10;99.90;;;;;;5058853;28;20048;-74
2022/05/04 01:36:18;;;;;;;14.90;3.03;;;8.10;99.90;;;;;;5059792;28;20339;-73
2022/05/04 01:38:43;;;;;;;13.10;2.85;;;8.00;99.90;;;;;;5060491;28;20044;-73
2022/05/04 01:42:02;;;;;;;14.30;2.50;;;8.00;99.90;;;;;;5058225;28;20106;-73
2022/05/04 01:43:55;;;;;;;16.20;2.75;;;7.90;99.90;;;;;;5044083;28;20049;-73
2022/05/04 01:46:21;;;;;;;16.55;2.42;;;7.90;99.90;;;;;;5059186;28;20045;-73
2022/05/04 01:48:49;;;;;;;14.85;2.50;;;8.00;99.90;;;;;;5058414;28;20056;-73
2022/05/04 01:51:15;;;;;;;13.93;2.70;;;8.00;99.90;;;;;;5059455;28;20119;-73
2022/05/04 01:53:41;;;;;;;14.05;3.22;;;8.00;99.90;;;;;;5040052;28;20464;-73
2022/05/04 01:56:07;;;;;;;11.70;3.27;;;8.00;99.90;;;;;;5040728;28;20045;-73
2022/05/04 01:58:34;;;;;;;13.80;2.65;;;8.00;99.90;;;;;;5056814;28;20051;-75
2022/05/04 02:01:01;;;;;;;16.27;2.75;;;8.00;99.90;;;;;;5038438;28;20051;-72
2022/05/04 02:03:27;;;;;;;15.90;2.70;;;8.00;99.90;;;;;;5057290;28;20072;-73
2022/05/04 02:05:55;;;;;;;18.77;2.60;;;8.00;99.90;;;;;;5040871;28;20056;-73
2022/05/04 02:08:21;;;;;;;12.77;2.83;;;8.00;99.90;;;;;;5041060;28;20071;-72
2022/05/04 02:10:47;;;;;;;17.27;2.67;;;8.00;99.90;;;;;;5056877;28;20075;-72
2022/05/04 02:13:13;;;;;;;18.40;2.90;;;7.90;99.90;;;;;;5058335;28;20121;-72
2022/05/04 02:15:38;;;;;;;12.32;2.60;;;7.90;99.90;;;;;;5057518;28;20351;-73
2022/05/04 02:18:04;;;;;;;16.10;3.25;;;7.80;99.90;;;;;;5038974;28;20480;-73
2022/05/04 02:20:30;;;;;;;11.02;2.63;;;7.90;99.90;;;;;;5055257;28;20041;-74
2022/05/04 02:22:56;;;;;;;14.02;2.40;;;7.90;99.90;;;;;;5037642;28;20055;-72
2022/05/04 02:25:21;;;;;;;13.05;2.40;;;7.90;99.90;;;;;;5055842;28;20106;-73
2022/05/04 02:27:47;;;;;;;9.15;2.50;;;7.90;99.90;;;;;;5055038;28;20405;-74
2022/05/04 02:30:13;;;;;;;15.07;2.78;;;7.90;99.90;;;;;;5090503;28;20049;-73
2022/05/04 02:32:39;;;;;;;15.90;3.05;;;7.90;99.90;;;;;;5072156;28;20091;-75
2022/05/04 02:37:57;;;;;;;11.75;2.80;;;7.80;99.90;;;;;;5052560;28;20049;-75
2022/05/04 02:40:27;;;;;;;10.00;2.40;;;7.80;99.90;;;;;;5053787;28;20055;-72
2022/05/04 02:42:54;;;;;;;10.75;2.40;;;7.80;99.90;;;;;;5053909;28;20084;-73
2022/05/04 02:45:20;;;;;;;14.07;2.47;;;7.70;99.90;;;;;;5035392;28;20132;-73
2022/05/04 02:47:46;;;;;;;14.02;3.05;;;7.70;99.90;;;;;;5052067;28;20048;-75
2022/05/04 02:50:12;;;;;;;12.65;2.50;;;7.70;99.90;;;;;;5052547;28;20094;-74
2022/05/04 02:52:37;;;;;;;16.80;2.72;;;7.70;99.90;;;;;;5035630;28;20385;-74
2022/05/04 02:55:04;;;;;;;14.98;2.60;;;7.70;99.90;;;;;;5051463;28;20130;-73
2022/05/04 02:57:30;;;;;;;11.02;2.25;;;7.70;99.90;;;;;;5068683;28;20059;-73
2022/05/04 02:59:56;;;;;;;19.70;3.30;;;7.70;99.90;;;;;;5053264;28;20048;-73
2022/05/04 03:02:27;;;;;;;14.27;2.38;;;7.60;99.90;;;;;;5051859;28;20055;-73
2022/05/04 03:04:59;;;;;;;17.77;3.15;;;7.60;99.90;;;;;;5020294;28;20056;-73
2022/05/04 03:07:26;;;;;;;14.10;3.10;;;7.70;99.90;;;;;;5053039;28;20061;-73
2022/05/04 03:09:56;;;;;;;12.30;2.50;;;7.70;99.90;;;;;;5018973;28;20048;-72
2022/05/04 03:12:22;;;;;;;11.27;2.60;;;7.70;99.90;;;;;;5052997;28;20057;-73
2022/05/04 03:14:47;;;;;;;14.63;2.72;;;7.70;99.90;;;;;;5051551;28;20043;-74
2022/05/04 03:17:13;;;;;;;14.13;2.72;;;7.70;99.90;;;;;;5034766;28;20057;-74
2022/05/04 03:19:40;;;;;;;16.15;2.85;;;7.70;99.90;;;;;;5051692;28;20084;-73
2022/05/04 03:22:06;;;;;;;15.52;2.70;;;7.70;99.90;;;;;;5051910;28;20468;-73
2022/05/04 03:24:32;;;;;;;11.57;2.60;;;7.70;99.90;;;;;;5053473;28;20049;-73
2022/05/04 03:26:58;;;;;;;14.02;2.75;;;7.70;99.90;;;;;;5051600;28;20072;-73
2022/05/04 03:29:24;;;;;;;16.88;3.08;;;7.70;99.90;;;;;;5051678;28;20099;-73
2022/05/04 03:31:50;;;;;;;13.52;2.53;;;7.70;99.90;;;;;;5051541;28;20055;-73
2022/05/04 03:34:16;;;;;;;13.50;2.38;;;7.70;99.90;;;;;;5052426;28;20041;-73
2022/05/04 03:36:41;;;;;;;15.95;2.97;;;7.80;99.90;;;;;;5052356;28;20045;-73
2022/05/04 03:39:08;;;;;;;12.68;2.88;;;7.70;99.90;;;;;;5036483;28;20047;-74
2022/05/04 03:41:34;;;;;;;13.43;2.50;;;7.70;99.90;;;;;;5052427;28;20048;-73
2022/05/04 03:44:01;;;;;;;11.98;3.17;;;7.80;99.90;;;;;;5034961;28;20720;-73
2022/05/04 03:46:28;;;;;;;14.68;3.33;;;7.70;99.90;;;;;;5052653;28;20122;-73
2022/05/04 03:48:58;;;;;;;14.48;2.50;;;7.70;99.90;;;;;;5035427;28;20037;-73
2022/05/04 03:51:25;;;;;;;9.70;2.38;;;7.70;99.90;;;;;;5051725;28;20055;-73
2022/05/04 03:53:52;;;;;;;13.88;2.65;;;7.70;99.90;;;;;;5052307;28;20049;-73
2022/05/04 03:56:19;;;;;;;15.38;2.90;;;7.70;99.90;;;;;;5051167;28;20049;-73
2022/05/04 03:58:46;;;;;;;10.75;2.60;;;7.70;99.90;;;;;;5068844;28;20053;-73
2022/05/04 04:01:13;;;;;;;13.15;2.83;;;7.70;99.90;;;;;;5052377;28;20080;-73
2022/05/04 04:03:39;;;;;;;18.27;2.72;;;7.80;99.90;;;;;;5051420;28;20049;-73
2022/05/04 04:06:05;;;;;;;12.05;2.30;;;7.80;99.90;;;;;;5052320;28;20444;-73
2022/05/04 04:08:31;;;;;;;14.05;2.15;;;7.70;99.90;;;;;;5055811;28;20049;-73
2022/05/04 04:10:58;;;;;;;15.15;2.53;;;7.80;99.90;;;;;;5038879;28;20137;-72
2022/05/04 04:13:24;;;;;;;16.20;2.70;;;7.70;99.90;;;;;;5038799;28;20060;-73
2022/05/04 04:15:51;;;;;;;9.10;2.63;;;7.80;99.90;;;;;;5055796;28;20045;-73
2022/05/04 04:18:22;;;;;;;11.57;2.92;;;7.70;99.90;;;;;;5056874;28;20136;-73
2022/05/04 04:23:33;;;;;;;19.30;2.85;;;7.80;99.90;;;;;;5055251;28;20060;-74
2022/05/04 04:26:00;;;;;;;15.02;3.20;;;7.80;99.90;;;;;;5038538;28;20459;-74
2022/05/04 04:28:25;;;;;;;17.20;2.70;;;7.80;99.90;;;;;;5056103;28;20049;-73
2022/05/04 04:30:52;;;;;;;13.68;2.70;;;7.80;99.90;;;;;;5055093;28;20053;-73
2022/05/04 04:33:18;;;;;;;13.30;2.85;;;7.80;99.90;;;;;;5055409;28;20080;-73
2022/05/04 04:35:44;;;;;;;17.48;2.60;;;7.80;99.90;;;;;;5055114;28;20052;-73
2022/05/04 04:38:09;;;;;;;12.27;2.50;;;7.90;99.90;;;;;;5054799;28;20052;-73
2022/05/04 04:40:35;;;;;;;13.23;2.05;;;8.00;99.90;;;;;;5055018;28;20052;-73
2022/05/04 04:43:01;;;;;;;14.93;2.65;;;7.90;99.90;;;;;;5037910;28;20181;-73
2022/05/04 04:45:28;;;;;;;11.80;3.15;;;8.00;99.90;;;;;;5054785;28;20473;-73
2022/05/04 04:47:56;;;;;;;14.63;2.55;;;8.00;99.90;;;;;;5038331;28;20049;-72
2022/05/04 04:50:24;;;;;;;8.98;2.45;;;8.00;99.90;;;;;;5054413;28;20049;-73
2022/05/04 04:52:50;;;;;;;18.63;2.80;;;8.10;99.90;;;;;;5056536;28;20143;-76
2022/05/04 04:55:16;;;;;;;16.58;2.88;;;8.10;99.90;;;;;;5023294;28;20481;-73
2022/05/04 04:57:42;;;;;;;16.13;2.67;;;8.10;99.90;;;;;;5054502;28;20049;-73
2022/05/04 05:00:08;;;;;;;12.00;2.38;;;8.20;99.90;;;;;;5055713;28;20048;-70
2022/05/04 05:02:35;;;;;;;9.35;2.22;;;8.20;99.90;;;;;;5021830;28;20048;-74
2022/05/04 05:05:02;;;;;;;13.68;2.53;;;8.10;99.90;;;;;;5054598;28;20172;-73
2022/05/04 05:07:28;;;;;;;;;;;8.10;99.90;;;;;;5056330;28;20041;-73
2022/05/04 05:09:54;;;;;;;21.65;3.90;;;8.00;99.90;;;;;;5057074;28;19921;-74
2022/05/04 05:12:21;;;;;;;15.80;3.53;;;8.10;99.90;;;;;;5042039;28;20052;-74
2022/05/04 05:17:32;;;;;;;15.85;2.63;;;8.20;99.90;;;;;;5054228;28;20115;-72
2022/05/04 05:19:58;;;;;;;14.50;2.25;;;8.20;99.90;;;;;;5058661;28;20110;-72
2022/05/04 05:22:24;;;;;;;10.75;2.28;;;8.30;99.90;;;;;;5057118;28;20052;-73
2022/05/04 05:24:50;;;;;;;20.25;2.53;;;8.30;99.90;;;;;;5041466;28;20370;-75
2022/05/04 05:27:16;;;;;;;15.70;3.05;;;8.40;99.90;;;;;;5041086;28;20112;-72
2022/05/04 05:29:41;;;;;;;13.07;3.15;;;8.40;99.90;;;;;;5039223;28;20045;-73
2022/05/04 05:32:08;;;;;;;13.85;2.38;;;8.40;99.90;;;;;;5038878;28;20091;-74
2022/05/04 05:34:34;;;;;;;15.05;3.35;;;8.30;99.90;;;;;;5039095;28;20049;-75
2022/05/04 05:37:03;;;;;;;16.50;3.25;;;8.40;99.90;;;;;;5038979;28;20045;-73
2022/05/04 05:39:29;;;;;;;11.10;2.97;;;8.40;99.90;;;;;;5038596;28;20055;-73
2022/05/04 05:41:55;;;;;;;19.80;3.47;;;8.50;99.90;;;;;;5056337;28;20132;-73
2022/05/04 05:44:21;;;;;;;9.70;2.30;;;8.60;99.90;;;;;;5056809;28;20048;-73
2022/05/04 05:46:47;;;;;;;18.52;3.63;;;8.50;99.90;;;;;;5023514;28;20045;-72
2022/05/04 05:49:12;;;;;;;14.18;2.80;;;8.70;99.90;;;;;;5054674;28;20401;-72
2022/05/04 05:51:38;;;;;;;17.63;2.65;;;8.70;99.90;;;;;;5055157;28;20045;-72
2022/05/04 05:54:04;;;;;;;10.60;2.15;;;8.80;99.90;;;;;;5038661;28;20041;-74
2022/05/04 05:56:30;;;;;;;15.65;2.60;;;8.90;99.90;;;;;;5056117;28;20110;-73
2022/05/04 05:58:55;;;;;;;10.98;2.20;;;8.70;99.90;;;;;;5038641;28;20045;-73
2022/05/04 06:01:21;;;;;;;14.70;2.08;;;8.80;99.90;;;;;;5056646;28;20063;-73
2022/05/04 06:03:49;;;;;;;11.13;1.80;;;8.80;99.90;;;;;;5038167;28;20057;-72
2022/05/04 06:06:15;;;;;;;8.77;1.95;;;8.90;99.90;;;;;;5055771;28;20081;-76
2022/05/04 06:08:40;;;;;;;18.13;2.10;;;9.00;99.90;;;;;;5037887;28;20586;-75
2022/05/04 06:11:07;;;;;;;13.05;2.30;;;8.90;99.90;;;;;;5055744;28;20128;-74
2022/05/04 06:13:33;;;;;;;13.38;2.20;;;9.10;99.90;;;;;;5038535;28;20053;-73
2022/05/04 06:15:58;;;;;;;10.25;2.30;;;9.20;99.90;;;;;;5054970;28;20049;-73
2022/05/04 06:18:24;;;;;;;12.73;2.03;;;9.20;99.90;;;;;;5020596;28;20056;-75
2022/05/04 06:20:50;;;;;;;13.52;2.25;;;9.20;99.90;;;;;;5037795;28;20067;-73
2022/05/04 06:23:16;;;;;;;8.50;2.25;;;9.00;99.90;;;;;;5053087;28;20493;-72
2022/05/04 06:25:42;;;;;;;14.18;1.98;;;8.80;99.90;;;;;;5054991;28;20045;-72
2022/05/04 06:28:08;;;;;;;20.75;3.10;;;8.90;99.90;;;;;;5036879;28;20049;-73
2022/05/04 06:36:02;;;;;;;11.52;1.90;;;9.20;99.90;;;;;;5055208;28;20044;-74
2022/05/04 06:38:28;;;;;;;9.55;1.92;;;9.30;99.90;;;;;;5053507;28;20055;-72
2022/05/04 06:40:54;;;;;;;16.67;2.30;;;9.30;99.90;;;;;;5053591;28;20045;-75
2022/05/04 06:43:20;;;;;;;13.27;2.63;;;9.50;99.90;;;;;;5053185;28;20044;-74
2022/05/04 06:45:46;;;;;;;12.80;2.00;;;9.60;99.90;;;;;;5037330;28;20041;-76
2022/05/04 06:48:12;;;;;;;11.43;2.50;;;9.60;99.90;;;;;;5055108;28;20145;-74
2022/05/04 06:50:38;;;;;;;10.48;2.08;;;9.80;99.90;;;;;;5055098;28;20041;-74
2022/05/04 06:53:04;;;;;;;13.77;2.83;;;9.60;99.90;;;;;;5039273;28;20667;-75
2022/05/04 06:55:30;;;;;;;9.48;2.13;;;9.40;99.90;;;;;;5071378;28;20146;-74
2022/05/04 06:57:55;;;;;;;14.43;2.60;;;9.60;99.90;;;;;;5053464;28;20512;-75
2022/05/04 07:00:21;;;;;;;10.95;2.30;;;9.40;99.90;;;;;;5053043;28;20044;-73
2022/05/04 07:02:47;;;;;;;11.65;1.92;;;9.70;99.90;;;;;;5054810;28;20041;-74
2022/05/04 07:05:13;;;;;;;12.45;2.90;;;9.80;99.90;;;;;;5024663;28;20129;-74
2022/05/04 07:07:39;;;;;;;13.32;2.55;;;9.60;99.90;;;;;;5038587;28;20473;-74
2022/05/04 07:10:05;;;;;;;10.15;2.38;;;9.80;99.90;;;;;;5053754;28;20048;-74
2022/05/04 07:12:31;;;;;;;15.53;2.53;;;10.00;99.90;;;;;;5053502;28;20060;-73
2022/05/04 07:14:57;;;;;;;11.68;2.47;;;9.80;99.90;;;;;;5035726;28;20497;-75
2022/05/04 07:17:26;;;;;;;16.48;3.55;;;10.00;99.90;;;;;;5052109;28;20060;-75
2022/05/04 07:19:52;;;;;;;;;;;10.10;99.90;;;;;;5054627;28;20385;-73
2022/05/04 07:22:19;;;;;;;13.63;1.85;;;10.30;99.90;;;;;;5086403;28;19920;-76
2022/05/04 07:24:45;;;;;;;12.80;2.60;;;10.40;99.90;;;;;;5036404;28;20532;-73
2022/05/04 07:27:11;;;;;;;16.30;2.30;;;10.40;99.90;;;;;;5036128;28;20080;-75
2022/05/04 07:29:37;;;;;;;12.80;2.38;;;10.60;99.90;;;;;;5052151;28;20045;-74
2022/05/04 07:32:03;;;;;;;11.70;3.22;;;10.70;99.90;;;;;;5052729;28;20068;-75
2022/05/04 07:34:30;;;;;;;10.77;2.65;;;10.50;99.90;;;;;;5036298;28;20045;-74
2022/05/04 07:36:57;;;;;;;7.60;2.20;;;10.50;99.90;;;;;;5052398;28;20045;-73
2022/05/04 07:42:22;;;;;;;10.50;2.33;;;10.80;99.90;;;;;;5050864;28;20190;-75
2022/05/04 07:44:49;;;;;;;11.05;2.65;;;10.90;98.70;;;;;;5053596;28;20049;-75
2022/05/04 07:47:15;;;;;;;;;;;11.10;99.90;;;;;;5051801;28;20038;-76
2022/05/04 07:49:40;;;;;;;12.73;2.80;;;10.80;97.50;;;;;;5052820;28;19949;-75
2022/05/04 07:52:06;;;;;;;17.38;2.90;;;10.50;97.80;;;;;;5051192;28;20048;-76
2022/05/04 07:54:32;;;;;;;16.40;2.65;;;10.50;98.40;;;;;;5034660;28;20072;-76
2022/05/04 07:56:58;;;;;;;7.97;2.47;;;10.60;97.80;;;;;;5050970;28;20123;-75
2022/05/04 07:59:25;;;;;;;8.30;3.00;;;10.80;98.50;;;;;;5051365;28;20102;-75
2022/05/04 08:04:34;;;;;;;9.57;2.30;;;10.80;98.00;;;;;;5052200;28;20120;-74
2022/05/04 08:07:01;;;;;;;10.70;3.10;;;11.10;97.90;;;;;;5052907;28;20662;-79
2022/05/04 08:09:27;;;;;;;10.45;2.58;;;10.60;95.40;;;;;;5052009;28;20416;-77
2022/05/04 08:11:53;;;;;;;13.85;2.50;;;11.10;97.10;;;;;;5051440;28;20124;-76
2022/05/04 08:14:19;;;;;;;9.13;2.08;;;11.30;97.50;;;;;;5052568;28;20127;-76
2022/05/04 08:16:46;;;;;;;15.07;2.97;;;11.50;97.20;;;;;;5035783;28;20057;-76
2022/05/04 08:19:13;;;;;;;8.25;2.72;;;11.60;97.30;;;;;;5051384;28;20057;-75
2022/05/04 08:21:38;;;;;;;10.80;2.78;;;11.70;96.20;;;;;;5050275;28;20087;-75
2022/05/04 08:24:05;;;;;;;12.13;2.55;;;11.40;94.90;;;;;;5052480;28;20049;-77
2022/05/04 08:26:31;;;;;;;14.73;4.33;;;10.90;95.50;;;;;;5051273;28;20067;-76
2022/05/04 08:28:56;;;;;;;21.98;6.85;;;11.40;97.00;;;;;;5050987;28;20041;-75
2022/05/04 08:31:22;;;;;;;14.45;3.08;;;11.70;96.70;;;;;;5052126;28;20071;-77
2022/05/04 08:33:49;;;;;;;7.57;2.40;;;12.00;97.10;;;;;;5053867;28;20464;-75
2022/05/04 08:36:15;;;;;;;28.45;15.10;;;12.10;95.80;;;;;;5052371;28;20049;-79
2022/05/04 08:38:41;;;;;;;8.00;3.20;;;12.30;96.10;;;;;;5052197;28;20136;-76
2022/05/04 08:41:09;;;;;;;9.98;3.20;;;12.50;95.60;;;;;;5051350;28;20489;-74
2022/05/04 08:43:35;;;;;;;11.50;3.70;;;12.30;94.20;;;;;;5052009;28;20049;-77
2022/05/04 08:46:03;;;;;;;9.93;2.72;;;12.40;95.70;;;;;;5052581;28;20492;-81
2022/05/04 08:48:31;;;;;;;12.25;2.90;;;12.10;93.00;;;;;;5053063;28;20056;-82
2022/05/04 08:51:00;;;;;;;8.95;2.78;;;11.70;94.00;;;;;;5054910;28;20048;-82
2022/05/04 08:53:27;;;;;;;10.52;2.70;;;11.70;93.70;;;;;;5054586;28;20060;-82
2022/05/04 08:55:54;;;;;;;11.25;2.65;;;11.40;93.90;;;;;;5040246;28;20041;-80
2022/05/04 08:58:20;;;;;;;12.48;2.60;;;11.40;95.00;;;;;;5058364;28;20446;-85
2022/05/04 09:00:46;;;;;;;11.95;2.38;;;11.70;95.70;;;;;;5039658;28;20049;-79
2022/05/04 09:03:12;;;;;;;8.02;3.28;;;11.80;95.20;;;;;;5056165;28;20036;-78
2022/05/04 09:05:46;;;;;;;13.50;3.75;;;12.10;94.70;;;;;;5056433;28;20513;-77
2022/05/04 09:08:13;;;;;;;11.00;2.88;;;11.50;92.60;;;;;;5054500;28;20044;-77
2022/05/04 09:10:44;;;;;;;11.70;2.90;;;11.90;94.30;;;;;;5038077;28;20491;-76
2022/05/04 09:13:10;;;;;;;13.43;2.95;;;12.20;94.70;;;;;;5055453;28;20053;-76
2022/05/04 09:15:40;;;;;;;13.38;2.95;;;12.50;94.90;;;;;;5055210;28;20033;-74
2022/05/04 09:18:16;;;;;;;12.00;3.55;;;12.80;94.40;;;;;;5054864;28;20454;-76
2022/05/04 09:20:49;;;;;;;11.65;2.60;;;12.90;93.40;;;;;;5058498;28;20061;-76
2022/05/04 09:23:28;;;;;;;13.88;2.95;;;12.90;91.80;;;;;;5056490;28;20397;-76
2022/05/04 09:25:59;;;;;;;13.38;2.95;;;12.90;92.80;;;;;;5056489;28;20044;-76
2022/05/04 09:28:28;;;;;;;9.88;2.40;;;12.90;93.60;;;;;;5056678;28;20541;-76
2022/05/04 09:30:59;;;;;;;10.57;2.22;;;13.10;93.80;;;;;;5058839;28;20053;-76
2022/05/04 09:33:27;;;;;;;10.55;2.10;;;13.10;92.80;;;;;;5041896;28;20092;-75
2022/05/04 09:35:54;;;;;;;14.18;2.30;;;12.70;91.80;;;;;;5058180;28;20178;-75
2022/05/04 09:46:42;;;;;;;10.32;2.38;;;12.10;92.30;;;;;;5064312;28;20044;-76
2022/05/04 09:49:16;;;;;;;8.20;2.10;;;12.20;90.90;;;;;;5063776;28;20371;-76
2022/05/04 09:51:49;;;;;;;8.13;2.15;;;12.40;92.30;;;;;;5061853;28;20512;-74
2022/05/04 09:54:18;;;;;;;8.75;2.50;;;12.50;91.40;;;;;;5044785;28;20155;-77
2022/05/04 09:56:46;;;;;;;13.75;2.42;;;12.80;92.20;;;;;;5061512;28;20037;-76
2022/05/04 09:59:15;;;;;;;10.15;2.30;;;12.90;92.20;;;;;;5066759;28;20049;-76
2022/05/04 10:01:43;;;;;;;9.88;2.40;;;13.10;92.00;;;;;;5065797;28;20049;-76
2022/05/04 10:04:10;;;;;;;11.13;2.90;;;12.30;87.90;;;;;;5062807;28;20124;-78
2022/05/04 10:06:36;;;;;;;15.65;2.90;;;12.30;89.20;;;;;;5063188;28;20049;-76
2022/05/04 10:09:04;;;;;;;9.60;2.13;;;12.30;90.30;;;;;;5060771;28;20098;-76
2022/05/04 10:11:32;;;;;;;8.80;2.38;;;12.40;90.50;;;;;;5060785;28;20123;-76
2022/05/04 10:14:05;;;;;;;13.95;2.80;;;12.30;90.00;;;;;;5040665;28;20119;-76
2022/05/04 10:16:46;;;;;;;10.48;2.47;;;12.50;91.10;;;;;;5057363;28;20041;-76
2022/05/04 10:19:22;;;;;;;11.50;2.53;;;12.70;91.00;;;;;;5056383;28;20428;-76
2022/05/04 10:21:52;;;;;;;10.75;2.45;;;12.70;90.60;;;;;;5055541;28;20084;-76
2022/05/04 10:24:20;;;;;;;18.33;3.40;;;12.60;90.30;;;;;;5058905;28;20044;-77
2022/05/04 10:26:46;;;;;;;9.95;2.40;;;12.80;91.20;;;;;;5058073;28;20095;-76
2022/05/04 10:32:36;;;;;;;15.10;2.95;;;13.00;91.20;;;;;;5059396;28;20048;-78
2022/05/04 10:35:30;;;;;;;15.57;3.33;;;12.80;87.90;;;;;;5058910;28;20049;-78
2022/05/04 10:37:57;;;;;;;13.40;2.97;;;12.90;88.90;;;;;;5058044;28;20049;-79
2022/05/04 10:40:30;;;;;;;14.88;2.70;;;12.40;88.20;;;;;;5059692;28;20570;-76
2022/05/04 10:42:57;;;;;;;15.48;4.15;;;12.20;88.60;;;;;;5040557;28;20053;-76
2022/05/04 10:45:31;;;;;;;19.23;3.47;;;12.00;89.50;;;;;;5041719;28;20049;-77
2022/05/04 10:48:21;;;;;;;8.70;2.83;;;11.80;88.90;;;;;;5059336;28;20343;-75
2022/05/04 10:50:55;;;;;;;10.00;3.17;;;12.10;90.30;;;;;;5059233;28;20124;-75
2022/05/04 10:53:41;;;;;;;13.70;2.90;;;12.50;90.60;;;;;;5057812;28;20052;-78
2022/05/04 10:56:10;;;;;;;11.80;3.10;;;12.80;90.90;;;;;;5057697;28;20095;-77
2022/05/04 10:58:42;;;;;;;13.00;2.90;;;12.80;86.90;;;;;;5040259;28;20102;-77
2022/05/04 11:01:20;;;;;;;11.35;3.17;;;12.60;87.50;;;;;;5056099;28;20129;-76
2022/05/04 11:04:04;;;;;;;10.20;2.78;;;12.90;88.60;;;;;;5053078;28;20045;-77
2022/05/04 11:06:38;;;;;;;10.23;2.58;;;12.90;88.70;;;;;;5053538;28;20483;-77
2022/05/04 11:09:10;;;;;;;8.55;2.88;;;13.10;88.60;;;;;;5053436;28;20057;-76
2022/05/04 11:11:40;;;;;;;14.93;3.10;;;13.10;86.80;;;;;;5052868;28;20052;-78
2022/05/04 11:14:07;;;;;;;15.82;2.88;;;13.30;88.30;;;;;;5052717;28;20044;-78
2022/05/04 11:16:33;;;;;;;;;;;13.00;84.60;;;;;;5054579;28;20067;-79
2022/05/04 11:19:00;;;;;;;18.35;2.95;;;13.20;84.40;;;;;;5086499;28;19921;-77
2022/05/04 11:21:28;;;;;;;11.77;3.22;;;13.10;85.90;;;;;;5020027;28;20053;-76
2022/05/04 11:23:58;;;;;;;15.65;2.65;;;13.20;88.80;;;;;;5053105;28;20037;-76
2022/05/04 11:26:34;;;;;;;10.75;2.33;;;13.30;86.60;;;;;;5036324;28;20045;-78
2022/05/04 11:29:00;;;;;;;8.93;2.50;;;13.30;86.80;;;;;;5054497;28;20037;-77
2022/05/04 11:31:26;;;;;;;6.30;2.03;;;13.40;83.90;;;;;;5053297;28;20103;-79
2022/05/04 11:33:52;;;;;;;8.65;2.35;;;13.60;86.00;;;;;;5053632;28;20283;-76
2022/05/04 11:36:24;;;;;;;12.98;2.15;;;13.50;84.30;;;;;;5052362;28;20048;-77
2022/05/04 11:38:51;;;;;;;13.65;2.55;;;13.70;85.20;;;;;;5051908;28;20041;-77
2022/05/04 11:41:19;;;;;;;7.72;2.65;;;13.80;83.10;;;;;;5051893;28;20041;-78
2022/05/04 11:43:48;;;;;;;9.63;2.20;;;13.30;79.80;;;;;;5053532;28;20044;-76
2022/05/04 11:46:14;;;;;;;9.32;2.35;;;13.60;82.00;;;;;;5053094;28;20040;-76
2022/05/04 11:48:47;;;;;;;9.60;2.25;;;13.60;83.40;;;;;;5036576;28;20429;-78
2022/05/04 11:51:18;;;;;;;13.30;2.58;;;13.80;83.90;;;;;;5052502;28;20470;-76
2022/05/04 11:53:45;;;;;;;8.35;2.78;;;13.80;82.30;;;;;;5035607;28;20044;-77
2022/05/04 11:56:11;;;;;;;;;;;14.10;85.10;;;;;;5052694;28;20049;-77
2022/05/04 11:58:40;;;;;;;11.38;2.53;;;14.10;82.00;;;;;;5052282;28;19921;-76
2022/05/04 12:01:08;;;;;;;10.82;2.70;;;14.20;81.80;;;;;;5053780;28;20081;-77
2022/05/04 12:03:38;;;;;;;6.85;2.00;;;14.20;82.10;;;;;;5038689;28;20049;-78
2022/05/04 12:06:09;;;;;;;12.27;2.70;;;14.40;79.40;;;;;;5035464;28;20041;-75
2022/05/04 12:08:36;;;;;;;10.63;2.20;;;14.30;80.90;;;;;;5052888;28;20056;-77
2022/05/04 12:11:03;;;;;;;10.00;3.10;;;14.20;81.00;;;;;;5051934;28;20053;-75
2022/05/04 12:13:29;;;;;;;13.05;3.00;;;13.80;81.00;;;;;;5052003;28;20045;-78
2022/05/04 12:15:56;;;;;;;7.37;2.63;;;14.10;80.50;;;;;;5035153;28;20530;-77
2022/05/04 12:18:28;;;;;;;9.85;2.75;;;14.00;80.00;;;;;;5052397;28;20296;-78
2022/05/04 12:20:55;;;;;;;10.52;2.40;;;14.10;78.70;;;;;;5034758;28;20053;-76
2022/05/04 12:23:21;;;;;;;15.95;2.90;;;14.10;80.10;;;;;;5053323;28;20061;-75
2022/05/04 12:25:47;;;;;;;12.73;3.00;;;14.10;80.10;;;;;;5052766;28;20048;-77
2022/05/04 12:28:13;;;;;;;13.55;2.80;;;14.40;81.00;;;;;;5052902;28;20084;-76
2022/05/04 12:33:38;;;;;;;9.02;2.45;;;14.80;81.00;;;;;;5056669;28;20375;-75
2022/05/04 12:36:07;;;;;;;10.07;3.10;;;14.60;78.50;;;;;;5057218;28;20113;-77
2022/05/04 12:38:39;;;;;;;11.77;3.13;;;14.60;78.70;;;;;;5056251;28;20052;-76
2022/05/04 12:41:06;;;;;;;11.30;3.22;;;14.70;77.20;;;;;;5056448;28;20084;-77
2022/05/04 12:43:34;;;;;;;12.43;3.00;;;14.40;76.80;;;;;;5038413;28;20139;-79
2022/05/04 12:46:01;;;;;;;9.43;2.80;;;14.30;77.90;;;;;;5055248;28;20136;-76
2022/05/04 12:48:27;;;;;;;10.40;3.25;;;14.00;77.60;;;;;;5056164;28;20053;-78
2022/05/04 12:50:58;;;;;;;13.23;2.63;;;14.00;78.80;;;;;;5038511;28;20151;-76
2022/05/04 12:53:25;;;;;;;8.35;2.33;;;14.10;77.90;;;;;;5054901;28;20283;-77
2022/05/04 12:58:36;;;;;;;9.45;2.78;;;14.40;80.20;;;;;;5054851;28;20052;-77
2022/05/04 13:01:04;;;;;;;14.13;3.13;;;14.50;78.70;;;;;;5055926;28;20127;-75
2022/05/04 13:03:30;;;;;;;15.98;3.15;;;14.50;78.10;;;;;;5055869;28;20049;-76
2022/05/04 13:05:56;;;;;;;9.80;3.08;;;14.30;78.00;;;;;;5055992;28;20048;-77
2022/05/04 13:08:22;;;;;;;9.38;3.05;;;14.20;76.70;;;;;;5054813;28;20045;-76
2022/05/04 13:10:49;;;;;;;10.60;3.05;;;14.30;77.40;;;;;;5038289;28;20064;-76
2022/05/04 13:13:18;;;;;;;13.43;2.80;;;14.30;77.60;;;;;;5054672;28;20109;-77
2022/05/04 13:15:44;;;;;;;11.48;3.40;;;14.50;77.90;;;;;;5056894;28;20129;-76
2022/05/04 13:18:10;;;;;;;9.90;2.55;;;14.40;74.40;;;;;;5055210;28;20149;-77
2022/05/04 13:20:38;;;;;;;9.07;2.90;;;14.60;75.50;;;;;;5071911;28;20103;-77
2022/05/04 13:23:04;;;;;;;11.23;2.97;;;14.50;76.00;;;;;;5056137;28;20083;-77